aviador You're here:

KSGF Decoded Metar

SPRINGFIELD in MO, USA
Report Time2018-05-28 08:52:00
UTC Time2018-05-28 09:46:16
Flight Rules vfr VFR
Wind130° at 03 kt
W.Decomp.*RWY 14: 2.9 kt HW 0.7 kt LCW
RWY 20: 0.9 kt HW 2.9 kt LCW
W.Rank130° ranks 9
Current wind is below 130° avg. (7.9)
Visibility9999 m
Phenomena:N/A
Clouds:N/A
Expected CloudBase > 1,200 ft AGL from Temp-Dew spread
CeilingNone
Temp22°C (ISA +10)
Dew Point19°C (83% RH)
QNH1013 hPa
Density Alt2,687 ft
Elevation1,280 ft
Report Wrong Elevation
Raw Report
KSGF 280852Z 13003KT 10SM CLR 22/19 A2992 RMK AO2 SLP118 T02220189
58006=

Extra information for KSGF:More info

Metar Taf Metar & Taf Last 4 Metars F.Rules Stats Wind Profile Meteogram Temp Stats Airport Information Weather charts Add Link Nearby VenuesMetar ALERT Operation Metar Decoded Social comments

AIRNAV info for KSGF